createdAt,value
2024-05-09T00:01:57.278Z,5.00
2024-05-09T00:04:29.146Z,4.80
2024-05-09T00:07:01.001Z,4.20
2024-05-09T00:09:32.837Z,4.00
2024-05-09T00:12:04.813Z,4.30
2024-05-09T00:14:36.822Z,4.00
2024-05-09T00:17:09.028Z,4.50
2024-05-09T00:19:41.032Z,4.40
2024-05-09T00:22:13.304Z,4.60
2024-05-09T00:24:44.968Z,4.70
2024-05-09T00:27:18.240Z,5.80
2024-05-09T00:29:49.915Z,5.00
2024-05-09T00:32:22.309Z,5.60
2024-05-09T00:34:55.097Z,5.40
2024-05-09T00:37:27.155Z,5.10
2024-05-09T00:40:18.312Z,6.10
2024-05-09T00:42:54.643Z,5.50
2024-05-09T00:45:26.771Z,5.70
2024-05-09T00:47:59.352Z,5.50
2024-05-09T00:50:36.428Z,5.90
2024-05-09T00:53:11.767Z,6.00
2024-05-09T00:55:44.745Z,5.80
2024-05-09T00:58:21.585Z,5.10
2024-05-09T01:00:53.853Z,5.80
2024-05-09T01:03:26.521Z,5.50
2024-05-09T01:05:58.954Z,5.70
2024-05-09T01:08:31.266Z,4.80
2024-05-09T01:11:04.722Z,5.20
2024-05-09T01:13:36.763Z,5.20
2024-05-09T01:16:09.358Z,5.10
2024-05-09T01:18:41.455Z,4.90
2024-05-09T01:21:13.880Z,5.20
2024-05-09T01:23:46.236Z,5.30
2024-05-09T01:26:18.247Z,5.40
2024-05-09T01:28:50.191Z,5.00
2024-05-09T01:31:22.027Z,6.00
2024-05-09T01:33:53.839Z,4.40
2024-05-09T01:36:25.582Z,4.70
2024-05-09T01:38:57.455Z,4.70
2024-05-09T01:41:29.319Z,4.70
2024-05-09T01:44:01.241Z,4.60
2024-05-09T01:46:34.511Z,4.50
2024-05-09T01:49:06.664Z,5.00
2024-05-09T01:51:38.707Z,5.10
2024-05-09T01:54:10.509Z,5.10
2024-05-09T01:56:42.463Z,5.10
2024-05-09T01:59:14.723Z,4.60
2024-05-09T02:01:56.530Z,4.50
2024-05-09T02:04:30.697Z,5.00
2024-05-09T02:07:02.708Z,4.80
2024-05-09T02:09:34.780Z,5.20
2024-05-09T02:12:07.312Z,5.20
2024-05-09T02:14:39.551Z,4.90
2024-05-09T02:17:11.368Z,5.30
2024-05-09T02:19:43.611Z,5.10
2024-05-09T02:22:15.424Z,5.10
2024-05-09T02:24:47.127Z,5.90
2024-05-09T02:27:19.054Z,6.10
2024-05-09T02:29:51.413Z,4.70
2024-05-09T02:32:23.550Z,5.30
2024-05-09T02:34:55.991Z,5.70
2024-05-09T02:37:27.932Z,5.40
2024-05-09T02:39:59.831Z,5.60
2024-05-09T02:42:31.940Z,5.80
2024-05-09T02:45:04.081Z,5.20
2024-05-09T02:47:35.987Z,5.60
2024-05-09T02:50:13.256Z,5.50
2024-05-09T02:52:48.215Z,5.10
2024-05-09T02:55:20.306Z,5.40
2024-05-09T02:57:52.389Z,5.80
2024-05-09T03:00:30.102Z,5.10
2024-05-09T03:03:12.622Z,6.20
2024-05-09T03:05:47.141Z,5.70
2024-05-09T03:08:19.293Z,6.40
2024-05-09T03:10:51.342Z,6.20
2024-05-09T03:13:23.180Z,6.20
2024-05-09T03:15:55.092Z,6.70
2024-05-09T03:18:27.417Z,6.60
2024-05-09T03:21:00.884Z,6.80
2024-05-09T03:23:36.271Z,6.50
2024-05-09T03:26:13.321Z,7.00
2024-05-09T03:28:47.541Z,7.20
2024-05-09T03:31:21.687Z,6.60
2024-05-09T03:33:53.646Z,7.50
2024-05-09T03:36:25.842Z,6.50
2024-05-09T03:38:58.492Z,7.20
2024-05-09T03:41:30.533Z,7.70
2024-05-09T03:44:02.545Z,7.90
2024-05-09T03:46:38.358Z,7.80
2024-05-09T03:49:10.528Z,6.70
2024-05-09T03:51:42.600Z,6.70
2024-05-09T03:54:14.717Z,7.70
2024-05-09T03:56:47.801Z,7.00
2024-05-09T03:59:19.623Z,6.60
2024-05-09T04:01:52.030Z,6.20
2024-05-09T04:04:24.348Z,6.70
2024-05-09T04:06:56.607Z,6.80
2024-05-09T04:09:28.730Z,7.10
2024-05-09T04:12:00.790Z,7.50
2024-05-09T04:14:33.053Z,6.60
2024-05-09T04:17:05.160Z,7.20
2024-05-09T04:19:36.957Z,6.40
2024-05-09T04:22:09.988Z,6.90
2024-05-09T04:24:42.076Z,7.70
2024-05-09T04:27:14.070Z,7.50
2024-05-09T04:29:45.982Z,8.10
2024-05-09T04:32:17.921Z,6.90
2024-05-09T04:34:49.880Z,7.10
2024-05-09T04:37:21.946Z,6.90
2024-05-09T04:39:54.677Z,6.00
2024-05-09T04:42:26.726Z,6.20
2024-05-09T04:44:58.873Z,6.90
2024-05-09T04:47:31.050Z,6.50
2024-05-09T04:50:03.593Z,6.20
2024-05-09T04:52:36.018Z,5.90
2024-05-09T04:55:08.827Z,5.90
2024-05-09T04:57:40.957Z,5.80
2024-05-09T05:00:15.039Z,5.90
2024-05-09T05:02:53.815Z,5.80
2024-05-09T05:05:26.129Z,5.50
2024-05-09T05:07:58.077Z,6.20
2024-05-09T05:10:35.689Z,6.30
2024-05-09T05:13:20.243Z,5.60
2024-05-09T05:15:57.183Z,6.50
2024-05-09T05:18:30.298Z,5.70
2024-05-09T05:21:02.112Z,5.30
2024-05-09T05:23:34.518Z,6.00
2024-05-09T05:26:06.784Z,6.00
2024-05-09T05:28:40.196Z,5.40
2024-05-09T05:31:12.059Z,5.80
2024-05-09T05:33:44.225Z,5.20
2024-05-09T05:36:16.342Z,5.00
2024-05-09T05:38:48.497Z,4.90
2024-05-09T05:41:20.663Z,5.30
2024-05-09T05:43:53.193Z,4.40
2024-05-09T05:46:26.411Z,4.70
2024-05-09T05:48:58.499Z,4.80
2024-05-09T05:51:31.573Z,5.00
2024-05-09T05:54:03.404Z,4.70
2024-05-09T05:56:35.293Z,4.50
2024-05-09T05:59:07.670Z,4.70
2024-05-09T06:01:40.228Z,4.60
2024-05-09T06:04:12.197Z,5.30
2024-05-09T06:06:44.361Z,5.30
2024-05-09T06:09:16.268Z,4.90
2024-05-09T06:11:48.260Z,4.30
2024-05-09T06:14:20.384Z,4.50
2024-05-09T06:16:54.649Z,4.60
2024-05-09T06:19:27.892Z,4.70
2024-05-09T06:22:01.744Z,4.70
2024-05-09T06:24:33.709Z,5.20
2024-05-09T06:27:06.554Z,4.30
2024-05-09T06:29:39.728Z,4.20
2024-05-09T06:32:12.448Z,3.80
2024-05-09T06:34:44.790Z,4.40
2024-05-09T06:37:16.751Z,4.00
2024-05-09T06:39:51.788Z,3.70
2024-05-09T06:42:23.922Z,4.40
2024-05-09T06:44:56.329Z,4.00
2024-05-09T06:47:28.774Z,4.90
2024-05-09T06:50:02.056Z,4.20
2024-05-09T06:52:33.846Z,4.50
2024-05-09T06:55:06.174Z,4.20
2024-05-09T06:57:39.164Z,4.40
2024-05-09T07:00:22.723Z,4.20
2024-05-09T07:03:05.483Z,4.80
2024-05-09T07:05:39.899Z,4.10
2024-05-09T07:08:13.522Z,4.40
2024-05-09T07:10:45.877Z,3.50
2024-05-09T07:13:20.062Z,3.70
2024-05-09T07:15:52.212Z,4.00
2024-05-09T07:18:24.549Z,3.70
2024-05-09T07:20:56.596Z,4.00
2024-05-09T07:23:28.810Z,4.30
2024-05-09T07:26:00.702Z,4.60
2024-05-09T07:28:32.776Z,4.20
2024-05-09T07:31:04.894Z,4.30
2024-05-09T07:33:37.463Z,3.50
2024-05-09T07:36:10.489Z,3.70
2024-05-09T07:38:42.874Z,4.30
2024-05-09T07:41:15.002Z,4.00
2024-05-09T07:43:47.336Z,4.20
2024-05-09T07:47:14.487Z,3.50
2024-05-09T07:50:55.112Z,3.60
2024-05-09T07:53:26.836Z,3.70
2024-05-09T07:54:56.368Z,3.20
2024-05-09T07:57:28.912Z,3.60
2024-05-09T08:00:00.826Z,3.40
2024-05-09T08:02:32.904Z,2.90
2024-05-09T08:05:05.237Z,3.50
2024-05-09T08:07:39.415Z,3.30
2024-05-09T08:10:15.400Z,3.20
2024-05-09T08:12:50.651Z,3.20
2024-05-09T08:15:22.422Z,3.20
2024-05-09T08:17:55.926Z,2.90
2024-05-09T08:20:33.432Z,3.30
2024-05-09T08:23:07.397Z,3.60
2024-05-09T08:25:39.229Z,3.30
2024-05-09T08:28:12.950Z,3.30
2024-05-09T08:30:45.394Z,3.30
2024-05-09T08:33:17.729Z,3.00
2024-05-09T08:35:49.766Z,3.60
2024-05-09T08:38:21.695Z,3.80
2024-05-09T08:40:54.068Z,4.10
2024-05-09T08:43:28.323Z,3.60
2024-05-09T08:46:01.614Z,3.30
2024-05-09T08:51:05.112Z,3.20
2024-05-09T08:53:36.913Z,3.30
2024-05-09T08:56:12.135Z,4.70
2024-05-09T08:58:45.927Z,4.20
2024-05-09T09:01:19.870Z,3.80
2024-05-09T09:03:53.510Z,3.70
2024-05-09T09:06:27.141Z,4.00
2024-05-09T09:09:00.717Z,3.90
2024-05-09T09:11:32.952Z,3.60
2024-05-09T09:14:05.132Z,3.60
2024-05-09T09:16:37.845Z,4.00
2024-05-09T09:19:09.777Z,4.20
2024-05-09T09:21:43.611Z,3.70
2024-05-09T09:24:15.918Z,3.90
2024-05-09T09:26:50.164Z,3.50
2024-05-09T09:29:24.045Z,3.80
2024-05-09T09:32:03.918Z,3.90
2024-05-09T09:34:36.724Z,3.60
2024-05-09T09:37:10.092Z,3.50
2024-05-09T09:39:49.021Z,3.50
2024-05-09T09:42:23.065Z,3.80
2024-05-09T09:45:03.889Z,4.00
2024-05-09T09:47:39.961Z,3.90
2024-05-09T09:50:17.095Z,3.00
2024-05-09T09:52:53.895Z,3.20
2024-05-09T09:55:27.243Z,3.00
2024-05-09T09:57:59.814Z,3.80
2024-05-09T10:00:33.608Z,3.50
2024-05-09T10:03:06.922Z,3.30
2024-05-09T10:05:43.056Z,4.00
2024-05-09T10:08:22.181Z,3.30
2024-05-09T10:10:54.994Z,3.70
2024-05-09T10:13:35.992Z,3.10
2024-05-09T10:16:12.750Z,3.70
2024-05-09T10:18:44.725Z,3.40
2024-05-09T10:21:21.260Z,3.30
2024-05-09T10:24:03.900Z,3.00
2024-05-09T10:26:37.358Z,3.80
2024-05-09T10:29:16.081Z,4.10
2024-05-09T10:31:49.152Z,3.80
2024-05-09T10:36:56.592Z,2.90
2024-05-09T10:39:35.918Z,4.10
2024-05-09T10:42:12.940Z,3.50
2024-05-09T10:44:46.262Z,3.20
2024-05-09T10:47:19.127Z,3.30
2024-05-09T10:49:53.132Z,3.10
2024-05-09T10:52:26.181Z,3.90
2024-05-09T10:55:00.364Z,3.80
2024-05-09T10:57:43.279Z,3.00
2024-05-09T11:00:23.609Z,3.50
2024-05-09T11:03:02.321Z,3.70
2024-05-09T11:05:35.153Z,3.60
2024-05-09T11:08:09.097Z,3.20
2024-05-09T11:10:43.424Z,3.40
2024-05-09T11:13:15.497Z,3.40
2024-05-09T11:15:47.432Z,3.40
2024-05-09T11:18:27.202Z,2.90
2024-05-09T11:21:00.873Z,3.40
2024-05-09T11:23:32.962Z,3.10
2024-05-09T11:26:05.367Z,3.90
2024-05-09T11:28:37.880Z,3.30
2024-05-09T11:31:11.335Z,3.70
2024-05-09T11:33:45.381Z,2.80
2024-05-09T11:36:17.839Z,2.80
2024-05-09T11:38:50.014Z,3.10
2024-05-09T11:41:22.480Z,3.90
2024-05-09T11:43:54.856Z,3.60
2024-05-09T11:46:27.180Z,3.60
2024-05-09T11:48:59.249Z,3.30
2024-05-09T11:51:31.173Z,3.30
2024-05-09T11:54:03.370Z,3.10
2024-05-09T11:56:35.524Z,3.70
2024-05-09T11:59:07.625Z,3.40
2024-05-09T12:01:41.320Z,3.00
2024-05-09T12:04:15.959Z,2.80
2024-05-09T12:06:48.276Z,2.90
2024-05-09T12:09:20.774Z,3.10
2024-05-09T12:11:52.803Z,3.50
2024-05-09T12:14:25.038Z,3.20
2024-05-09T12:16:59.478Z,3.10
2024-05-09T12:19:31.371Z,3.10
2024-05-09T12:22:03.544Z,2.80
2024-05-09T12:24:35.608Z,3.50
2024-05-09T12:27:08.068Z,3.00
2024-05-09T12:29:39.942Z,3.50
2024-05-09T12:32:12.966Z,3.10
2024-05-09T12:37:15.743Z,3.00
2024-05-09T12:39:47.739Z,2.90
2024-05-09T12:42:27.063Z,2.90
2024-05-09T12:45:00.657Z,2.60
2024-05-09T12:47:32.628Z,2.90
2024-05-09T12:50:13.422Z,3.20
2024-05-09T12:52:50.556Z,2.50
2024-05-09T12:55:22.316Z,3.00
2024-05-09T12:57:54.471Z,2.80
2024-05-09T13:00:31.646Z,2.50
2024-05-09T13:03:08.814Z,3.00
2024-05-09T13:05:44.628Z,2.80
2024-05-09T13:08:17.288Z,2.50
2024-05-09T13:10:50.668Z,2.10
2024-05-09T13:13:22.643Z,2.50
2024-05-09T13:15:55.426Z,2.70
2024-05-09T13:18:27.714Z,2.60
2024-05-09T13:21:00.509Z,2.80
2024-05-09T13:23:32.337Z,3.10
2024-05-09T13:26:04.488Z,2.70
2024-05-09T13:28:37.447Z,2.50
2024-05-09T13:31:10.429Z,2.80
2024-05-09T13:33:42.837Z,2.60
2024-05-09T13:36:15.042Z,2.40
2024-05-09T13:38:47.264Z,3.30
2024-05-09T13:41:19.275Z,3.10
2024-05-09T13:43:51.079Z,2.90
2024-05-09T13:46:23.423Z,2.80
2024-05-09T13:48:57.154Z,2.80
2024-05-09T13:51:29.913Z,3.30
2024-05-09T13:54:02.841Z,2.70
2024-05-09T13:56:34.870Z,2.60
2024-05-09T13:59:09.564Z,3.30
2024-05-09T14:01:44.028Z,2.80
2024-05-09T14:04:17.078Z,3.20
2024-05-09T14:06:49.943Z,3.10
2024-05-09T14:09:21.885Z,3.30
2024-05-09T14:11:54.004Z,2.80
2024-05-09T14:14:25.987Z,2.90
2024-05-09T14:16:58.269Z,3.20
2024-05-09T14:19:30.133Z,3.20
2024-05-09T14:22:02.529Z,3.60
2024-05-09T14:24:34.493Z,3.20
2024-05-09T14:27:07.284Z,3.60
2024-05-09T14:29:39.047Z,2.90
2024-05-09T14:32:11.305Z,3.10
2024-05-09T14:34:43.071Z,3.10
2024-05-09T14:37:15.152Z,3.70
2024-05-09T14:39:47.072Z,3.00
2024-05-09T14:42:20.733Z,2.80
2024-05-09T14:44:52.559Z,3.50
2024-05-09T14:47:24.901Z,3.20
2024-05-09T14:49:57.282Z,3.30
2024-05-09T14:52:29.451Z,3.20
2024-05-09T14:55:01.558Z,3.00
2024-05-09T14:57:33.538Z,2.90
2024-05-09T15:00:08.990Z,3.40
2024-05-09T15:02:43.380Z,3.30
2024-05-09T15:05:15.353Z,3.10
2024-05-09T15:07:47.876Z,2.50
2024-05-09T15:10:27.537Z,3.20
2024-05-09T15:13:10.399Z,3.00
2024-05-09T15:15:44.718Z,3.00
2024-05-09T15:18:17.506Z,3.30
2024-05-09T15:20:51.197Z,2.90
2024-05-09T15:23:24.312Z,2.40
2024-05-09T15:28:27.488Z,2.90
2024-05-09T15:31:00.552Z,3.00
2024-05-09T15:33:32.661Z,3.20
2024-05-09T15:36:04.911Z,2.70
2024-05-09T15:38:39.212Z,3.40
2024-05-09T15:41:11.124Z,3.20
2024-05-09T15:43:43.357Z,2.80
2024-05-09T15:46:16.527Z,3.00
2024-05-09T15:48:49.593Z,2.90
2024-05-09T15:51:21.615Z,2.60
2024-05-09T15:53:54.134Z,3.20
2024-05-09T15:56:27.723Z,3.00
2024-05-09T15:59:00.457Z,2.80
2024-05-09T16:01:34.693Z,2.40
2024-05-09T16:04:08.579Z,2.50
2024-05-09T16:06:41.755Z,2.60
2024-05-09T16:09:14.995Z,3.10
2024-05-09T16:11:47.797Z,2.70
2024-05-09T16:14:20.177Z,2.70
2024-05-09T16:16:53.202Z,2.70
2024-05-09T16:19:26.394Z,2.60
2024-05-09T16:22:00.326Z,2.70
2024-05-09T16:24:34.022Z,2.70
2024-05-09T16:27:06.458Z,2.70
2024-05-09T16:29:39.659Z,2.70
